Glenwood, North Carolina
Current Conditions -  °F | °C
As of 2:55 AM on Wednesday 22 Oct 2014 (Local Time) from KFQD Reporting Station
Clear Clear  
Wind Chill: 48°   Ceiling: Unl
Heat Index: 50°   Visibility: 10mi
Dew Point: 34°   Wind: 5mph
Humidity: 55%   Direction: 30°NNE
Pressure: 30.01"   Gusts: NA
Location:  35.61°N, 81.98°W
Report Text: KFQD 220655Z AUTO 03004KT 10SM CLR 10/01 A3001 RMK AO2 T00980012
Loading
Personal Weather Stations






























Interactive Weather Map
Tropical Storm Tracking
New forecast layout! Learn more

10-Day Weather Forecast

Advertisements
Track Severe Weather on mobile